Time;durP1;ratioP1;P1;durP2;ratioP2;P2;SDS_P1;SDS_P2;PMS_P1;PMS_P2;Temp;Humidity;BMP_temperature;BMP_pressure;BME280_temperature;BME280_humidity;BME280_pressure;Samples;Min_cycle;Max_cycle;Signal;HPM_P1;HPM_P2
2022/02/24 00:00:23;;;;;;;10.53;4.30;;;9.60;50.30;;;;;;4998511;28;20186;-86
2022/02/24 00:02:49;;;;;;;12.47;4.87;;;9.50;52.80;;;;;;5002542;28;20245;-83
2022/02/24 00:05:16;;;;;;;12.53;5.00;;;9.50;52.50;;;;;;5002217;28;20647;-86
2022/02/24 00:07:42;;;;;;;8.07;3.90;;;9.40;56.40;;;;;;5000423;28;20175;-86
2022/02/24 00:10:10;;;;;;;16.33;6.00;;;9.70;51.30;;;;;;5000910;28;20233;-84
2022/02/24 00:12:37;;;;;;;13.73;4.53;;;9.50;52.40;;;;;;4999762;28;20242;-85
2022/02/24 00:15:05;;;;;;;15.47;4.73;;;9.40;55.30;;;;;;4999352;28;20195;-86
2022/02/24 00:17:31;;;;;;;14.83;5.40;;;9.40;54.90;;;;;;5014055;28;20587;-86
2022/02/24 00:19:58;;;;;;;17.87;4.53;;;9.50;54.50;;;;;;5015178;28;20167;-85
2022/02/24 00:22:25;;;;;;;14.17;4.73;;;9.50;53.10;;;;;;5015289;28;20179;-85
2022/02/24 00:24:51;;;;;;;12.23;5.00;;;9.50;51.20;;;;;;5014469;28;20181;-85
2022/02/24 00:27:17;;;;;;;12.40;4.80;;;9.40;53.70;;;;;;5023360;28;20219;-86
2022/02/24 00:29:43;;;;;;;14.77;5.07;;;9.50;54.00;;;;;;5033240;28;20997;-84
2022/02/24 00:32:09;;;;;;;13.27;4.70;;;9.50;49.70;;;;;;5031130;28;20195;-85
2022/02/24 00:34:35;;;;;;;13.70;4.70;;;9.60;48.20;;;;;;5013380;28;20187;-90
2022/02/24 00:37:04;;;;;;;13.30;4.50;;;9.60;49.20;;;;;;5028850;28;20241;-86
2022/02/24 00:39:31;;;;;;;13.10;5.03;;;9.60;47.30;;;;;;5017673;28;20258;-85
2022/02/24 00:41:57;;;;;;;14.43;5.40;;;9.60;48.20;;;;;;5016633;28;20197;-85
2022/02/24 00:44:23;;;;;;;15.20;5.00;;;9.70;48.80;;;;;;5016837;28;20258;-85
2022/02/24 00:46:52;;;;;;;12.43;5.00;;;9.50;48.00;;;;;;4998896;28;20690;-84
2022/02/24 00:49:22;;;;;;;13.03;5.13;;;9.40;49.40;;;;;;5013062;28;20179;-85
2022/02/24 00:51:49;;;;;;;14.90;4.97;;;9.30;50.60;;;;;;5014259;28;20179;-85
2022/02/24 00:54:15;;;;;;;13.43;5.07;;;9.40;48.00;;;;;;5016248;28;20171;-84
2022/02/24 00:56:41;;;;;;;12.07;5.10;;;9.30;48.00;;;;;;5020486;28;20186;-86
2022/02/24 00:59:07;;;;;;;11.20;4.57;;;9.40;46.50;;;;;;5017605;28;20182;-84
2022/02/24 01:01:32;;;;;;;12.53;4.73;;;9.60;42.10;;;;;;5018137;28;20206;-86
2022/02/24 01:03:58;;;;;;;11.60;4.97;;;9.50;42.20;;;;;;5015616;28;20592;-85
2022/02/24 01:06:24;;;;;;;12.20;4.67;;;9.50;41.50;;;;;;5013456;28;20222;-87
2022/02/24 01:08:49;;;;;;;11.87;4.70;;;9.40;44.00;;;;;;5014480;28;20183;-86
2022/02/24 01:11:15;;;;;;;12.50;4.73;;;9.50;42.40;;;;;;5014537;28;20577;-86
2022/02/24 01:13:41;;;;;;;9.20;4.37;;;9.40;44.00;;;;;;5015225;28;20182;-85
2022/02/24 01:16:07;;;;;;;10.63;4.70;;;9.40;44.90;;;;;;5016003;28;20179;-86
2022/02/24 01:18:33;;;;;;;10.40;3.93;;;9.50;44.80;;;;;;5028570;28;20246;-84
2022/02/24 01:21:00;;;;;;;12.77;4.30;;;9.50;43.40;;;;;;5029461;28;20166;-85
2022/02/24 01:23:25;;;;;;;10.77;4.00;;;9.40;44.40;;;;;;5018132;28;20203;-86
2022/02/24 01:25:51;;;;;;;11.47;3.70;;;9.40;45.40;;;;;;5014145;28;20175;-86
2022/02/24 01:28:19;;;;;;;9.87;3.20;;;9.40;45.10;;;;;;4998392;28;20171;-85
2022/02/24 01:30:45;;;;;;;13.57;4.00;;;9.30;44.00;;;;;;5013554;28;20230;-87
2022/02/24 01:33:10;;;;;;;13.20;3.90;;;9.40;43.70;;;;;;5013987;28;20178;-87
2022/02/24 01:35:42;;;;;;;9.50;3.53;;;9.30;44.80;;;;;;5013483;28;20179;-86
2022/02/24 01:38:08;;;;;;;11.17;3.27;;;9.30;45.50;;;;;;5015189;28;20179;-85
2022/02/24 01:40:35;;;;;;;12.03;4.07;;;9.40;44.80;;;;;;5013180;28;20179;-84
2022/02/24 01:43:02;;;;;;;13.97;4.23;;;9.40;44.70;;;;;;5013151;28;20194;-86
2022/02/24 01:45:28;;;;;;;10.07;3.20;;;9.20;48.20;;;;;;5010166;28;20184;-85
2022/02/24 01:47:57;;;;;;;9.53;3.50;;;9.30;48.40;;;;;;4993463;28;20182;-85
2022/02/24 01:50:23;;;;;;;13.83;3.47;;;9.20;51.00;;;;;;4993899;28;20211;-86
2022/02/24 01:52:50;;;;;;;15.10;4.10;;;9.20;51.70;;;;;;4992779;28;20659;-84
2022/02/24 01:55:16;;;;;;;9.00;3.17;;;9.30;51.60;;;;;;4994625;28;20227;-84
2022/02/24 01:57:42;;;;;;;12.17;4.17;;;9.20;53.20;;;;;;4994307;28;20179;-85
2022/02/24 02:00:09;;;;;;;11.57;3.03;;;9.30;53.80;;;;;;4994790;28;20180;-86
2022/02/24 02:02:34;;;;;;;12.43;4.10;;;9.20;53.60;;;;;;4995162;28;20182;-86
2022/02/24 02:05:00;;;;;;;9.60;3.73;;;9.30;52.30;;;;;;4995691;28;20566;-86
2022/02/24 02:07:29;;;;;;;9.30;3.20;;;9.20;52.50;;;;;;4995117;28;20187;-85
2022/02/24 02:09:55;;;;;;;9.87;3.67;;;9.20;54.10;;;;;;4996026;28;20693;-84
2022/02/24 02:12:21;;;;;;;14.37;3.83;;;9.20;51.60;;;;;;4996029;28;20275;-84
2022/02/24 02:14:47;;;;;;;10.73;3.50;;;9.20;51.90;;;;;;4994816;28;20199;-84
2022/02/24 02:17:13;;;;;;;11.53;4.00;;;9.10;53.60;;;;;;5009447;28;20229;-84
2022/02/24 02:19:39;;;;;;;11.97;3.37;;;9.10;55.70;;;;;;5015365;28;20182;-84
2022/02/24 02:22:05;;;;;;;15.43;3.60;;;9.30;55.30;;;;;;5022951;28;20171;-85
2022/02/24 02:24:32;;;;;;;13.83;4.40;;;9.40;52.20;;;;;;5011540;28;20183;-85
2022/02/24 02:26:58;;;;;;;13.67;4.10;;;9.30;52.80;;;;;;5030142;28;20198;-84
2022/02/24 02:29:24;;;;;;;12.23;3.63;;;9.20;55.30;;;;;;5026300;28;20174;-85
2022/02/24 02:31:49;;;;;;;14.57;4.07;;;9.10;54.60;;;;;;4999984;28;20550;-84
2022/02/24 02:34:18;;;;;;;9.70;3.57;;;9.20;54.60;;;;;;5013422;28;20171;-85
2022/02/24 02:36:48;;;;;;;9.80;3.30;;;9.20;53.60;;;;;;5014312;28;20278;-85
2022/02/24 02:39:15;;;;;;;8.97;3.17;;;9.20;53.80;;;;;;5014638;28;20174;-84
2022/02/24 02:41:44;;;;;;;13.13;3.60;;;9.10;54.80;;;;;;4996607;28;20174;-84
2022/02/24 02:44:12;;;;;;;9.93;3.03;;;9.20;53.80;;;;;;4997896;28;20175;-85
2022/02/24 02:46:39;;;;;;;11.57;4.17;;;9.10;53.40;;;;;;5011923;28;20193;-85
2022/02/24 02:49:05;;;;;;;11.00;3.40;;;9.10;54.20;;;;;;5011924;28;20185;-85
2022/02/24 02:51:31;;;;;;;9.37;3.40;;;9.20;52.30;;;;;;4997412;28;20175;-85
2022/02/24 02:53:57;;;;;;;9.47;3.13;;;9.10;53.50;;;;;;5012122;28;20171;-85
2022/02/24 02:56:23;;;;;;;8.83;3.33;;;9.30;48.40;;;;;;5014137;28;20180;-86
2022/02/24 02:58:48;;;;;;;9.73;3.30;;;9.20;48.20;;;;;;5014840;28;20175;-84
2022/02/24 03:01:14;;;;;;;12.13;3.87;;;9.20;46.10;;;;;;5013172;28;20177;-85
2022/02/24 03:03:40;;;;;;;11.77;3.03;;;9.20;47.50;;;;;;5012700;28;20186;-85
2022/02/24 03:06:06;;;;;;;8.00;3.67;;;9.20;45.60;;;;;;5013219;28;20174;-86
2022/02/24 03:08:32;;;;;;;11.70;3.53;;;9.20;47.30;;;;;;5012158;28;20179;-86
2022/02/24 03:10:57;;;;;;;13.57;3.80;;;9.10;50.10;;;;;;5011239;28;20246;-84
2022/02/24 03:13:23;;;;;;;11.23;3.80;;;9.20;49.20;;;;;;4997694;28;20608;-85
2022/02/24 03:15:50;;;;;;;12.33;4.30;;;9.20;47.80;;;;;;5013581;28;20202;-84
2022/02/24 03:18:15;;;;;;;12.60;3.47;;;9.40;44.40;;;;;;5012548;28;20167;-84
2022/02/24 03:20:41;;;;;;;10.47;3.63;;;9.10;46.00;;;;;;5012436;28;20171;-86
2022/02/24 03:23:09;;;;;;;10.03;3.77;;;9.00;48.60;;;;;;5012009;28;20183;-85
2022/02/24 03:25:35;;;;;;;8.50;3.57;;;8.90;51.00;;;;;;5011629;28;20265;-85
2022/02/24 03:28:02;;;;;;;9.67;3.60;;;9.10;49.80;;;;;;5010565;28;20241;-85
2022/02/24 03:30:29;;;;;;;10.57;4.07;;;8.90;49.50;;;;;;5011712;28;20601;-83
2022/02/24 03:32:56;;;;;;;10.07;3.60;;;9.10;49.20;;;;;;5011064;28;20190;-86
2022/02/24 03:35:22;;;;;;;9.37;3.33;;;9.00;46.60;;;;;;5011862;28;20194;-86
2022/02/24 03:37:48;;;;;;;11.07;4.03;;;9.10;45.40;;;;;;5014823;28;20170;-85
2022/02/24 03:40:15;;;;;;;11.80;3.20;;;9.00;43.90;;;;;;5015597;28;20175;-85
2022/02/24 03:42:45;;;;;;;14.20;3.97;;;9.00;46.50;;;;;;5014572;28;20274;-87
2022/02/24 03:45:11;;;;;;;13.77;4.03;;;8.90;46.20;;;;;;5014687;28;20178;-84
2022/02/24 03:47:37;;;;;;;12.77;3.77;;;8.90;45.30;;;;;;5001270;28;20184;-85
2022/02/24 03:50:05;;;;;;;9.30;3.40;;;8.90;43.90;;;;;;4995774;28;20680;-86
2022/02/24 03:52:31;;;;;;;11.43;3.37;;;8.90;43.60;;;;;;4996290;28;20179;-85
2022/02/24 03:54:56;;;;;;;11.60;3.40;;;8.70;44.10;;;;;;4995676;28;20538;-84
2022/02/24 03:57:22;;;;;;;14.57;3.63;;;8.80;44.20;;;;;;4981128;28;20222;-85
2022/02/24 03:59:47;;;;;;;10.77;3.20;;;8.80;42.60;;;;;;4980499;28;20670;-86
2022/02/24 04:02:13;;;;;;;6.97;2.90;;;8.80;39.90;;;;;;4997368;28;20310;-85
2022/02/24 04:04:39;;;;;;;11.23;3.67;;;8.70;41.00;;;;;;4981159;28;20211;-86
2022/02/24 04:07:06;;;;;;;13.03;3.40;;;8.80;39.60;;;;;;4980786;28;20525;-85
2022/02/24 04:09:32;;;;;;;12.60;3.50;;;8.90;36.30;;;;;;4995444;28;20179;-86
2022/02/24 04:11:59;;;;;;;11.70;3.53;;;8.80;35.20;;;;;;4995647;28;20558;-86
2022/02/24 04:14:31;;;;;;;9.87;3.60;;;8.90;34.80;;;;;;4994520;28;20191;-87
2022/02/24 04:16:59;;;;;;;10.13;3.40;;;8.80;34.30;;;;;;5001404;28;20202;-86
2022/02/24 04:19:25;;;;;;;7.80;3.03;;;8.60;35.20;;;;;;5015488;28;20262;-86
2022/02/24 04:21:51;;;;;;;9.20;3.13;;;8.50;38.70;;;;;;5018145;28;20174;-84
2022/02/24 04:24:17;;;;;;;10.67;3.30;;;8.60;38.80;;;;;;5022531;28;20209;-86
2022/02/24 04:26:42;;;;;;;11.23;3.40;;;8.50;38.40;;;;;;5025674;28;20198;-84
2022/02/24 04:29:08;;;;;;;11.50;3.30;;;8.50;38.90;;;;;;5025116;28;20259;-85
2022/02/24 04:31:36;;;;;;;16.13;3.70;;;8.40;39.30;;;;;;5015686;28;20242;-83
2022/02/24 04:34:02;;;;;;;11.77;4.07;;;8.60;39.90;;;;;;5034453;28;20163;-84
2022/02/24 04:36:27;;;;;;;9.27;3.07;;;8.40;39.90;;;;;;5023666;28;20274;-86
2022/02/24 04:38:57;;;;;;;10.37;3.53;;;8.40;38.70;;;;;;5017779;28;20265;-86
2022/02/24 04:41:25;;;;;;;7.80;2.97;;;8.50;38.60;;;;;;5016086;28;20175;-86
2022/02/24 04:43:57;;;;;;;7.23;2.80;;;8.50;38.10;;;;;;4999414;28;20163;-88
2022/02/24 04:46:23;;;;;;;13.47;3.30;;;8.50;35.20;;;;;;5014091;28;20183;-84
2022/02/24 04:48:49;;;;;;;9.40;2.83;;;8.60;33.60;;;;;;5012106;28;20174;-86
2022/02/24 04:51:15;;;;;;;10.40;2.90;;;8.60;32.50;;;;;;5014152;28;20210;-85
2022/02/24 04:53:40;;;;;;;13.03;2.60;;;8.60;29.30;;;;;;5014903;28;20627;-85
2022/02/24 04:56:06;;;;;;;13.37;2.80;;;8.50;30.40;;;;;;5014515;28;20175;-86
2022/02/24 04:58:33;;;;;;;11.23;2.93;;;8.70;28.50;;;;;;5016616;28;20219;-85
2022/02/24 05:01:01;;;;;;;9.60;3.17;;;8.50;27.40;;;;;;5014250;28;20182;-85
2022/02/24 05:03:26;;;;;;;11.97;2.90;;;8.70;28.60;;;;;;5012697;28;20221;-86
2022/02/24 05:05:52;;;;;;;6.20;2.10;;;8.50;29.00;;;;;;5014445;28;20171;-84
2022/02/24 05:08:17;;;;;;;11.53;2.80;;;8.40;29.40;;;;;;5014526;28;20182;-86
2022/02/24 05:10:43;;;;;;;11.73;2.90;;;8.40;30.50;;;;;;5013985;28;20207;-88
2022/02/24 05:13:09;;;;;;;9.20;3.60;;;8.30;31.30;;;;;;5013672;28;20181;-85
2022/02/24 05:15:36;;;;;;;10.23;3.30;;;8.40;32.70;;;;;;5013512;28;20202;-85
2022/02/24 05:18:02;;;;;;;10.57;3.97;;;8.40;34.50;;;;;;5012925;28;20241;-86
2022/02/24 05:20:28;;;;;;;9.70;3.47;;;8.40;34.60;;;;;;4998652;28;20209;-86
2022/02/24 05:22:54;;;;;;;8.53;3.97;;;8.30;35.50;;;;;;4996814;28;20270;-86
2022/02/24 05:25:20;;;;;;;9.47;4.30;;;8.20;38.30;;;;;;4998324;28;20613;-85
2022/02/24 05:27:46;;;;;;;12.90;3.87;;;8.50;38.20;;;;;;4998487;28;20186;-85
2022/02/24 05:30:13;;;;;;;10.27;3.87;;;8.30;35.60;;;;;;5001434;28;20305;-86
2022/02/24 05:32:40;;;;;;;11.33;4.17;;;8.30;34.60;;;;;;5007106;28;20206;-85
2022/02/24 05:35:07;;;;;;;12.87;3.83;;;8.30;36.20;;;;;;5003178;28;20183;-85
2022/02/24 05:37:34;;;;;;;11.40;3.40;;;8.20;35.40;;;;;;4997735;28;20183;-86
2022/02/24 05:40:01;;;;;;;10.00;3.27;;;8.10;36.30;;;;;;4997152;28;20266;-88
2022/02/24 05:42:27;;;;;;;10.13;3.10;;;8.10;36.60;;;;;;4998389;28;20245;-86
2022/02/24 05:44:55;;;;;;;11.93;3.90;;;8.10;36.40;;;;;;5000007;28;20159;-86
2022/02/24 05:47:21;;;;;;;11.33;3.03;;;8.10;35.70;;;;;;5006849;28;20168;-85
2022/02/24 05:49:50;;;;;;;12.93;3.57;;;8.10;35.20;;;;;;5008396;28;20264;-85
2022/02/24 05:52:17;;;;;;;9.13;2.83;;;8.30;34.70;;;;;;5009571;28;20171;-85
2022/02/24 05:54:44;;;;;;;5.67;2.77;;;8.10;31.80;;;;;;4999470;28;20182;-86
2022/02/24 05:57:11;;;;;;;11.80;3.13;;;8.10;31.60;;;;;;4997467;28;20190;-87
2022/02/24 05:59:37;;;;;;;8.90;2.80;;;8.10;29.80;;;;;;4997915;28;20163;-87
2022/02/24 06:02:04;;;;;;;8.00;2.93;;;8.10;29.80;;;;;;4997445;28;20695;-88
2022/02/24 06:04:29;;;;;;;13.93;3.30;;;8.10;29.20;;;;;;4997434;28;20250;-86
2022/02/24 06:06:55;;;;;;;9.50;3.40;;;8.10;29.70;;;;;;4996406;28;20218;-86
2022/02/24 06:09:21;;;;;;;12.33;2.90;;;8.00;29.80;;;;;;4999024;28;20191;-85
2022/02/24 06:11:49;;;;;;;6.77;2.63;;;8.30;28.80;;;;;;4997999;28;20264;-85
2022/02/24 06:14:15;;;;;;;9.13;3.57;;;8.20;27.20;;;;;;4998693;28;20183;-85
2022/02/24 06:16:41;;;;;;;8.47;2.90;;;8.20;25.20;;;;;;4997160;28;20178;-86
2022/02/24 06:19:07;;;;;;;11.60;3.63;;;8.00;25.60;;;;;;4995926;28;20179;-86
2022/02/24 06:21:33;;;;;;;11.17;3.10;;;8.10;27.00;;;;;;4995705;28;20170;-86
2022/02/24 06:23:58;;;;;;;11.47;3.03;;;8.20;27.40;;;;;;4995906;28;20538;-87
2022/02/24 06:26:27;;;;;;;9.77;3.13;;;8.30;28.30;;;;;;5002112;28;20186;-85
2022/02/24 06:28:52;;;;;;;10.20;2.80;;;8.10;29.40;;;;;;5005942;28;20232;-86
2022/02/24 06:31:18;;;;;;;11.90;3.07;;;8.40;30.10;;;;;;5000068;28;20305;-85
2022/02/24 06:33:44;;;;;;;13.50;3.03;;;8.30;29.70;;;;;;5006294;28;20175;-86
2022/02/24 06:36:10;;;;;;;8.37;3.23;;;8.20;30.10;;;;;;5000473;28;20170;-86
2022/02/24 06:38:38;;;;;;;10.37;3.30;;;8.20;32.80;;;;;;4999416;28;20178;-87
2022/02/24 06:41:04;;;;;;;14.37;3.57;;;8.20;34.90;;;;;;4996347;28;20570;-86
2022/02/24 06:43:31;;;;;;;14.70;3.77;;;8.20;36.30;;;;;;4995952;28;20186;-86
2022/02/24 06:46:05;;;;;;;10.80;3.53;;;8.10;38.60;;;;;;4997415;28;20276;-88
2022/02/24 06:48:30;;;;;;;10.17;3.17;;;8.10;40.20;;;;;;4995261;28;20210;-86
2022/02/24 06:50:56;;;;;;;10.27;3.03;;;8.10;40.70;;;;;;4992727;28;20203;-87
2022/02/24 06:53:22;;;;;;;11.97;3.77;;;8.10;41.20;;;;;;4992394;28;20593;-86
2022/02/24 06:55:49;;;;;;;10.30;3.47;;;8.20;39.60;;;;;;5005910;28;20258;-87
2022/02/24 06:58:15;;;;;;;9.43;3.20;;;8.10;42.10;;;;;;4995169;28;20687;-87
2022/02/24 07:00:40;;;;;;;13.00;3.77;;;8.10;40.00;;;;;;4996895;28;20270;-88
2022/02/24 07:03:06;;;;;;;13.43;4.67;;;8.20;38.70;;;;;;4998600;28;20274;-88
2022/02/24 07:05:33;;;;;;;10.00;3.07;;;8.30;37.20;;;;;;5001803;28;20175;-88
2022/02/24 07:08:01;;;;;;;10.90;3.37;;;8.30;36.10;;;;;;4997902;28;20187;-88
2022/02/24 07:10:30;;;;;;;14.27;4.03;;;8.30;35.90;;;;;;5012418;28;20206;-88
2022/02/24 07:12:55;;;;;;;19.83;3.73;;;8.10;36.10;;;;;;5002989;28;20238;-88
2022/02/24 07:15:28;;;;;;;13.73;4.03;;;8.20;35.80;;;;;;5018998;28;20202;-89
2022/02/24 07:17:53;;;;;;;10.27;3.37;;;8.30;35.30;;;;;;5019243;28;20167;-88
2022/02/24 07:20:19;;;;;;;9.20;3.00;;;8.30;36.30;;;;;;5008257;28;20188;-87
2022/02/24 07:22:46;;;;;;;10.40;3.10;;;8.30;35.50;;;;;;4995421;28;20172;-87
2022/02/24 07:25:14;;;;;;;13.70;3.43;;;8.30;35.10;;;;;;4997664;28;20179;-86
2022/02/24 07:27:42;;;;;;;14.50;3.83;;;8.40;32.40;;;;;;5001594;28;20179;-89
2022/02/24 07:30:12;;;;;;;15.53;3.77;;;8.50;29.50;;;;;;5002349;28;20211;-89
2022/02/24 07:32:42;;;;;;;11.93;3.30;;;8.50;29.20;;;;;;5001030;28;20233;-88
2022/02/24 07:35:13;;;;;;;15.50;3.53;;;8.50;28.50;;;;;;4990140;28;20179;-89
2022/02/24 07:37:43;;;;;;;18.37;3.70;;;8.60;28.60;;;;;;4989545;28;20207;-90
2022/02/24 07:40:11;;;;;;;12.53;3.70;;;8.70;27.00;;;;;;4987271;28;20195;-89
2022/02/24 07:42:42;;;;;;;9.00;3.30;;;8.60;25.70;;;;;;4997593;28;20254;-88
2022/02/24 07:45:09;;;;;;;9.63;3.33;;;8.60;23.40;;;;;;4993287;28;20183;-88
2022/02/24 07:47:38;;;;;;;14.57;3.47;;;8.70;22.80;;;;;;4984482;28;20194;-90
2022/02/24 07:50:13;;;;;;;9.17;2.90;;;8.70;21.60;;;;;;5002231;28;20207;-89
2022/02/24 07:52:43;;;;;;;9.40;3.30;;;8.70;20.00;;;;;;5008403;28;20186;-90
2022/02/24 07:55:11;;;;;;;9.63;3.03;;;8.70;20.80;;;;;;4995965;28;20180;-89
2022/02/24 07:57:45;;;;;;;14.80;3.63;;;8.60;19.70;;;;;;4992387;28;20183;-90
2022/02/24 08:00:13;;;;;;;9.93;2.90;;;8.70;20.40;;;;;;5000091;28;20184;-90
2022/02/24 08:02:41;;;;;;;13.73;3.27;;;8.70;19.70;;;;;;5000295;28;20540;-88
2022/02/24 08:05:13;;;;;;;9.53;3.30;;;8.50;19.60;;;;;;4992808;28;20159;-90
2022/02/24 08:07:39;;;;;;;11.83;2.97;;;8.90;19.60;;;;;;4998748;28;20237;-89
2022/02/24 08:10:07;;;;;;;12.17;2.87;;;8.70;19.30;;;;;;4989511;28;20665;-91
2022/02/24 08:12:39;;;;;;;11.57;2.70;;;8.80;16.60;;;;;;4988718;28;20201;-89
2022/02/24 08:15:08;;;;;;;10.00;2.90;;;8.70;18.30;;;;;;4992802;28;20230;-91
2022/02/24 08:17:34;;;;;;;10.10;2.97;;;8.70;20.40;;;;;;4992343;28;20190;-90
2022/02/24 08:20:00;;;;;;;11.40;3.23;;;8.80;19.20;;;;;;5005070;28;20182;-88
2022/02/24 08:22:28;;;;;;;12.20;3.30;;;8.70;19.50;;;;;;5000975;28;20180;-90
2022/02/24 08:24:55;;;;;;;11.10;2.80;;;8.80;19.40;;;;;;4997987;28;20182;-89
2022/02/24 08:27:21;;;;;;;9.50;3.03;;;8.80;18.70;;;;;;5009805;28;20186;-88
2022/02/24 08:29:47;;;;;;;11.97;4.00;;;8.90;16.20;;;;;;5004350;28;20268;-87
2022/02/24 08:32:13;;;;;;;12.47;4.03;;;8.70;19.40;;;;;;5003135;28;20256;-88
2022/02/24 08:34:56;;;;;;;12.80;3.50;;;8.80;20.40;;;;;;4988769;28;20183;-87
2022/02/24 08:37:21;;;;;;;9.50;2.57;;;8.70;22.10;;;;;;5003288;28;20190;-89
2022/02/24 08:39:54;;;;;;;14.60;3.43;;;8.80;19.70;;;;;;5009579;28;20631;-89
2022/02/24 08:42:25;;;;;;;13.90;3.37;;;8.80;20.40;;;;;;4995085;28;20188;-87
2022/02/24 08:44:55;;;;;;;12.10;3.23;;;8.90;21.40;;;;;;4996189;28;20179;-87
2022/02/24 08:47:25;;;;;;;11.97;3.00;;;9.00;18.60;;;;;;5007281;28;20193;-88
2022/02/24 08:49:51;;;;;;;14.10;3.23;;;8.90;19.00;;;;;;4993397;28;20175;-89
2022/02/24 08:52:18;;;;;;;16.20;3.33;;;8.90;20.60;;;;;;4989715;28;20543;-88
2022/02/24 08:54:46;;;;;;;10.93;3.00;;;9.00;21.60;;;;;;4981152;28;20703;-88
2022/02/24 08:57:14;;;;;;;10.27;3.87;;;9.00;20.10;;;;;;4987517;28;20198;-89
2022/02/24 08:59:45;;;;;;;11.67;3.67;;;9.00;21.10;;;;;;4988300;28;20218;-90
2022/02/24 09:02:10;;;;;;;13.00;3.10;;;8.80;20.30;;;;;;4985688;28;20180;-88
2022/02/24 09:04:37;;;;;;;13.90;3.53;;;9.10;21.00;;;;;;4987871;28;20167;-89
2022/02/24 09:07:06;;;;;;;10.17;3.53;;;9.00;21.90;;;;;;4986039;28;20274;-89
2022/02/24 09:09:31;;;;;;;10.60;3.37;;;9.10;22.90;;;;;;4978833;28;20647;-90
2022/02/24 09:12:01;;;;;;;15.90;3.53;;;9.30;18.80;;;;;;4990297;28;20211;-90
2022/02/24 09:14:28;;;;;;;11.57;3.23;;;9.20;18.00;;;;;;4992257;28;20205;-89
2022/02/24 09:16:56;;;;;;;10.40;3.57;;;9.20;19.70;;;;;;4995208;28;20191;-91
2022/02/24 09:19:23;;;;;;;15.83;3.67;;;9.30;20.20;;;;;;4995855;28;20182;-89
2022/02/24 09:21:49;;;;;;;8.50;2.53;;;9.20;23.20;;;;;;4997159;28;20203;-89
2022/02/24 09:24:15;;;;;;;10.40;3.13;;;9.40;21.90;;;;;;5012005;28;20250;-90
2022/02/24 09:26:43;;;;;;;10.40;2.73;;;9.30;22.80;;;;;;4999844;28;20175;-90
2022/02/24 09:29:14;;;;;;;11.67;3.30;;;9.40;21.00;;;;;;4984749;28;20184;-90
2022/02/24 09:31:41;;;;;;;8.73;2.83;;;9.40;20.60;;;;;;4995345;28;20230;-92
2022/02/24 09:34:07;;;;;;;13.47;3.50;;;9.60;22.50;;;;;;4979862;28;20184;-90
2022/02/24 09:36:34;;;;;;;11.07;2.70;;;9.40;22.90;;;;;;4981464;28;20184;-91
2022/02/24 09:39:01;;;;;;;14.50;2.97;;;9.50;24.40;;;;;;4984776;28;20171;-90
2022/02/24 09:41:28;;;;;;;13.63;2.93;;;9.50;23.10;;;;;;4991586;28;20186;-87
2022/02/24 09:43:55;;;;;;;8.27;2.40;;;9.50;23.70;;;;;;4986648;28;20270;-88
2022/02/24 09:46:21;;;;;;;10.60;2.70;;;9.50;27.30;;;;;;4977990;28;20197;-90
2022/02/24 09:48:48;;;;;;;8.20;2.40;;;9.50;25.10;;;;;;4988135;28;20209;-91
2022/02/24 09:51:18;;;;;;;11.23;3.07;;;9.50;25.40;;;;;;5013785;28;20703;-88
2022/02/24 09:53:45;;;;;;;14.83;3.87;;;9.60;25.10;;;;;;5004102;28;20210;-89
2022/02/24 09:56:28;;;;;;;10.97;2.87;;;9.60;27.60;;;;;;4967861;28;20175;-88
2022/02/24 09:58:58;;;;;;;9.87;2.70;;;9.80;25.00;;;;;;4987482;28;20210;-89
2022/02/24 10:01:24;;;;;;;6.20;2.37;;;9.50;24.40;;;;;;4988494;28;20184;-88
2022/02/24 10:03:56;;;;;;;13.47;2.37;;;9.60;24.10;;;;;;4998677;28;20191;-89
2022/02/24 10:06:37;;;;;;;6.10;2.10;;;9.70;20.60;;;;;;4992981;28;20179;-88
2022/02/24 10:09:03;;;;;;;7.23;2.33;;;9.80;19.00;;;;;;5007577;28;20178;-89
2022/02/24 10:11:31;;;;;;;9.30;2.70;;;9.90;17.10;;;;;;5013303;28;20214;-89
2022/02/24 10:14:06;;;;;;;8.40;3.00;;;10.00;13.80;;;;;;4981302;28;20199;-90
2022/02/24 10:16:59;;;;;;;10.47;2.47;;;10.10;12.60;;;;;;4991182;28;20670;-90
2022/02/24 10:19:46;;;;;;;10.07;2.90;;;10.10;10.70;;;;;;4998133;28;20605;-89
2022/02/24 10:22:29;;;;;;;10.33;2.80;;;10.20;9.50;;;;;;4982321;28;20198;-90
2022/02/24 10:25:02;;;;;;;11.33;2.30;;;10.30;10.10;;;;;;4978595;28;20222;-89
2022/02/24 10:27:30;;;;;;;11.27;3.20;;;10.40;9.60;;;;;;4995907;28;20156;-88
2022/02/24 10:30:02;;;;;;;7.83;2.23;;;10.40;7.20;;;;;;5007214;28;20171;-89
2022/02/24 10:32:42;;;;;;;9.33;2.30;;;10.50;7.10;;;;;;5016094;28;20186;-90
2022/02/24 10:35:46;;;;;;;9.53;3.03;;;10.60;7.20;;;;;;4991552;28;20214;-88
2022/02/24 10:38:13;;;;;;;18.93;3.07;;;10.70;4.40;;;;;;4945204;29;20715;-87
2022/02/24 10:40:48;;;;;;;9.67;2.60;;;10.70;3.40;;;;;;4980677;28;20329;-91
2022/02/24 10:43:19;;;;;;;9.60;2.80;;;10.70;3.90;;;;;;4996523;28;20178;-89
2022/02/24 10:46:03;;;;;;;7.07;2.50;;;10.60;4.70;;;;;;4991809;28;20557;-88
2022/02/24 10:48:30;;;;;;;10.97;2.40;;;10.60;7.50;;;;;;4994378;28;20635;-90
2022/02/24 10:51:05;;;;;;;10.63;2.77;;;10.60;6.60;;;;;;4994844;28;20215;-91
2022/02/24 10:53:35;;;;;;;8.20;2.20;;;10.70;7.40;;;;;;4998730;28;20274;-88
2022/02/24 10:56:09;;;;;;;8.20;2.37;;;10.80;4.30;;;;;;5002104;28;20250;-90
2022/02/24 10:58:43;;;;;;;10.30;2.37;;;10.80;1.30;;;;;;5001481;28;20224;-87
2022/02/24 11:01:18;;;;;;;8.43;2.27;;;10.90;3.30;;;;;;4994983;28;20182;-90
2022/02/24 11:03:56;;;;;;;7.83;2.70;;;11.20;3.00;;;;;;4994071;28;20206;-90
2022/02/24 11:06:25;;;;;;;9.80;2.53;;;11.10;1.30;;;;;;4994560;28;20225;-90
2022/02/24 11:08:53;;;;;;;8.77;2.53;;;11.20;1.00;;;;;;5000242;28;20206;-88
2022/02/24 11:11:23;;;;;;;5.73;2.00;;;11.40;1.00;;;;;;5010806;28;20211;-87
2022/02/24 11:13:49;;;;;;;13.03;2.30;;;11.40;1.00;;;;;;4982311;28;20549;-87
2022/02/24 11:16:17;;;;;;;9.80;2.60;;;11.40;1.00;;;;;;4991202;28;20706;-87
2022/02/24 11:18:43;;;;;;;7.57;2.40;;;11.30;1.00;;;;;;5000050;28;20236;-87
2022/02/24 11:21:12;;;;;;;11.13;2.53;;;11.60;1.00;;;;;;5002877;28;20184;-87
2022/02/24 11:23:44;;;;;;;8.33;2.20;;;11.40;1.00;;;;;;4979885;28;20191;-88
2022/02/24 11:26:22;;;;;;;7.07;2.10;;;11.30;1.00;;;;;;4994465;28;20189;-90
2022/02/24 11:29:13;;;;;;;5.70;2.43;;;11.40;1.00;;;;;;4994218;28;20266;-88
2022/02/24 11:31:54;;;;;;;10.73;2.57;;;11.60;1.00;;;;;;4992107;28;20224;-89
2022/02/24 11:35:00;;;;;;;5.93;1.83;;;11.70;1.00;;;;;;4988221;28;20175;-88
2022/02/24 11:37:35;;;;;;;6.00;2.10;;;11.80;1.00;;;;;;4945915;29;20188;-88
2022/02/24 11:40:02;;;;;;;6.97;4.10;;;11.80;1.00;;;;;;4999642;28;20185;-88
2022/02/24 11:42:30;;;;;;;11.83;2.10;;;11.70;1.00;;;;;;5003482;28;20209;-88
2022/02/24 11:44:56;;;;;;;7.00;2.03;;;11.60;1.00;;;;;;4998639;28;20179;-89
2022/02/24 11:47:24;;;;;;;6.97;1.80;;;11.60;1.00;;;;;;4993697;28;20203;-90
2022/02/24 11:50:07;;;;;;;8.33;1.80;;;11.60;1.00;;;;;;4991420;28;20179;-87
2022/02/24 11:52:46;;;;;;;8.43;1.77;;;11.60;1.00;;;;;;5004311;28;20179;-88
2022/02/24 11:55:41;;;;;;;7.67;1.87;;;11.60;1.00;;;;;;5002424;28;20162;-89
2022/02/24 11:59:00;;;;;;;6.63;2.20;;;11.60;1.00;;;;;;4998930;28;20218;-89
2022/02/24 12:01:47;;;;;;;6.57;2.10;;;11.60;1.00;;;;;;4944794;29;20281;-89
2022/02/24 12:04:29;;;;;;;4.80;1.80;;;11.80;1.00;;;;;;4943103;29;20184;-89
2022/02/24 12:07:12;;;;;;;6.03;2.20;;;11.70;1.00;;;;;;4988668;28;20182;-89
2022/02/24 12:09:38;;;;;;;7.60;2.20;;;11.60;1.00;;;;;;5007136;28;20234;-89
2022/02/24 12:12:20;;;;;;;9.07;2.10;;;11.60;1.00;;;;;;5009573;28;20238;-90
2022/02/24 12:14:48;;;;;;;7.13;1.60;;;11.60;1.00;;;;;;5015247;28;20214;-88
2022/02/24 12:17:15;;;;;;;13.53;2.20;;;11.40;1.00;;;;;;5015582;28;20179;-90
2022/02/24 12:19:53;;;;;;;8.00;2.10;;;11.30;1.20;;;;;;4990878;28;20226;-90
2022/02/24 12:22:32;;;;;;;5.13;1.90;;;11.30;9.20;;;;;;5008560;28;20183;-88
2022/02/24 12:25:13;;;;;;;6.93;2.10;;;11.20;19.90;;;;;;5013680;28;20770;-88
2022/02/24 12:27:41;;;;;;;6.10;1.83;;;11.10;28.40;;;;;;5005590;28;20171;-90
2022/02/24 12:30:40;;;;;;;4.83;1.80;;;11.00;33.50;;;;;;4994111;28;20200;-90
2022/02/24 12:33:15;;;;;;;5.87;2.10;;;10.90;39.30;;;;;;4974137;28;20192;-90
2022/02/24 12:35:50;;;;;;;6.83;2.57;;;11.00;39.20;;;;;;4981717;28;20181;-89
2022/02/24 12:38:22;;;;;;;7.97;2.37;;;10.90;41.10;;;;;;4982106;28;20171;-90
2022/02/24 12:40:51;;;;;;;7.20;1.97;;;10.80;42.20;;;;;;4980709;28;20222;-89
2022/02/24 12:43:20;;;;;;;6.43;1.63;;;10.80;45.10;;;;;;4981035;28;20251;-92
2022/02/24 12:45:49;;;;;;;6.07;1.97;;;10.90;43.10;;;;;;4980009;28;20172;-88
2022/02/24 12:48:17;;;;;;;5.10;1.73;;;10.80;44.40;;;;;;4980609;28;20648;-90
2022/02/24 12:50:51;;;;;;;7.50;2.20;;;10.80;43.00;;;;;;4982930;28;20679;-89
2022/02/24 12:53:23;;;;;;;6.97;2.17;;;10.80;47.80;;;;;;4981740;28;20179;-90
2022/02/24 12:56:13;;;;;;;10.47;2.23;;;10.70;50.60;;;;;;4983637;28;20275;-92
2022/02/24 12:58:43;;;;;;;8.37;2.53;;;10.60;58.30;;;;;;4981601;28;20179;-92